Sea-land Lightning — WDB9986 — position and weather

sailwx.info

Track history (hours):
 
Tides and Currents Weather Stations Pressure Air Temp Water Temp Dewpoint Dewpoint Depression Visibility Wind Speed Wind Dir Waves Ship Positions

Sea-land Lightning

More information available from US FCC via Universal Licensing System.

Last reported at 2014-Aug-02 01:10 UTC. Time now 2014-Aug-02 06:39 UTC.
Position N 34°38' E 139°25'.

Type: Ship (hazmat cat A). MMSI: 303316000.

Date/timePositionNaut miles runAvg speedWind from/ knotsBaromVisibWave heightAir tempDewpointWater temp
2014-Aug-02 01:10N 34°38' E 139°25'1117.7
2014-Aug-02 00:33N 34°45' E 139°36'1919.2
2014-Aug-01 23:33N 35°03' E 139°42'1313.1
2014-Aug-01 22:34N 35°16' E 139°46'9 9.4
2014-Aug-01 21:33N 35°24' E 139°41'0 0.2
2014-Aug-01 20:33N 35°24' E 139°41'0 0.0
2014-Aug-01 19:33N 35°24' E 139°41'0 0.0
2014-Aug-01 18:33N 35°24' E 139°41'0 0.0
2014-Aug-01 17:33N 35°24' E 139°41'0 0.0
2014-Aug-01 16:33N 35°24' E 139°41'0 0.0
2014-Aug-01 15:33N 35°24' E 139°41'0 0.0
2014-Aug-01 14:33N 35°24' E 139°41'4 3.7
2014-Aug-01 13:33N 35°21' E 139°43'1010.2
2014-Aug-01 12:34N 35°11' E 139°47'1211.8
2014-Aug-01 11:33N 34°60' E 139°42'1311.8
2014-Aug-01 10:29N 34°49' E 139°50'1212.9
2014-Aug-01 09:33N 34°51' E 140°04'1413.9
2014-Aug-01 08:32N 34°60' E 140°18'1413.4
2014-Aug-01 07:30N 35°08' E 140°32'1511.8
2014-Aug-01 06:15N 35°19' E 140°44'912.4
2014-Aug-01 05:33N 35°25' E 140°51'1212.4
2014-Aug-01 04:33N 35°34' E 141°02'1312.9
2014-Aug-01 03:33N 35°44' E 141°12'1614.1
2014-Aug-01 02:27N 35°57' E 141°22'1314.2
2014-Aug-01 01:33N 36°09' E 141°29'1817.7
2014-Aug-01 00:32N 36°25' E 141°39'37315.2
2014-Jul-31 00:00N 40°48' E 147°18'18715.6 220 / 221015.0 2.2 1.021.016.420.0
2014-Jul-30 12:00N 42°48' E 150°30'   230 / 201015.0 0.0 1.016.014.415.0
2014-Jul-25 13:00N 54°00' W 170°42'   300 / 131025.0 5.4 1.011.0 5.010.0
Track history (hours):
 
Tides and Currents Weather Stations Pressure Air Temp Water Temp Dewpoint Dewpoint Depression Visibility Wind Speed Wind Dir Waves Ship Positions

Sea-land Lightning

More information available from US FCC via Universal Licensing System.

Last reported at 2014-Aug-02 01:10 UTC. Time now 2014-Aug-02 06:39 UTC.
Position N 34°38' E 139°25'.

Type: Ship (hazmat cat A). MMSI: 303316000.

Date/timePositionNaut miles runAvg speedWind from/ knotsBaromVisibWave heightAir tempDewpointWater temp
2014-Aug-02 01:10N 34°38' E 139°25'1117.7
2014-Aug-02 00:33N 34°45' E 139°36'1919.2
2014-Aug-01 23:33N 35°03' E 139°42'1313.1
2014-Aug-01 22:34N 35°16' E 139°46'9 9.4
2014-Aug-01 21:33N 35°24' E 139°41'0 0.2
2014-Aug-01 20:33N 35°24' E 139°41'0 0.0
2014-Aug-01 19:33N 35°24' E 139°41'0 0.0
2014-Aug-01 18:33N 35°24' E 139°41'0 0.0
2014-Aug-01 17:33N 35°24' E 139°41'0 0.0
2014-Aug-01 16:33N 35°24' E 139°41'0 0.0
2014-Aug-01 15:33N 35°24' E 139°41'0 0.0
2014-Aug-01 14:33N 35°24' E 139°41'4 3.7
2014-Aug-01 13:33N 35°21' E 139°43'1010.2
2014-Aug-01 12:34N 35°11' E 139°47'1211.8
2014-Aug-01 11:33N 34°60' E 139°42'1311.8
2014-Aug-01 10:29N 34°49' E 139°50'1212.9
2014-Aug-01 09:33N 34°51' E 140°04'1413.9
2014-Aug-01 08:32N 34°60' E 140°18'1413.4
2014-Aug-01 07:30N 35°08' E 140°32'1511.8
2014-Aug-01 06:15N 35°19' E 140°44'912.4
2014-Aug-01 05:33N 35°25' E 140°51'1212.4
2014-Aug-01 04:33N 35°34' E 141°02'1312.9
2014-Aug-01 03:33N 35°44' E 141°12'1614.1
2014-Aug-01 02:27N 35°57' E 141°22'1314.2
2014-Aug-01 01:33N 36°09' E 141°29'1817.7
2014-Aug-01 00:32N 36°25' E 141°39'37315.2
2014-Jul-31 00:00N 40°48' E 147°18'18715.6 220 / 221015.0 2.2 1.021.016.420.0
2014-Jul-30 12:00N 42°48' E 150°30'   230 / 201015.0 0.0 1.016.014.415.0
2014-Jul-25 13:00N 54°00' W 170°42'   300 / 131025.0 5.4 1.011.0 5.010.0

Dump ship's entire track history